Time;durP1;ratioP1;P1;durP2;ratioP2;P2;SDS_P1;SDS_P2;PMS_P1;PMS_P2;Temp;Humidity;BMP_temperature;BMP_pressure;BME280_temperature;BME280_humidity;BME280_pressure;Samples;Min_cycle;Max_cycle;Signal;HPM_P1;HPM_P2
2024/02/03 05:01:45;;;;;;;1.00;0.90;;;9.20;97.30;;;;;;5786654;22;20487;-93
2024/02/03 05:04:14;;;;;;;1.63;1.53;;;9.20;97.30;;;;;;4996502;28;20476;-93
2024/02/03 05:06:46;;;;;;;3.40;3.20;;;9.20;97.30;;;;;;5003305;28;20420;-94
2024/02/03 05:09:15;;;;;;;3.23;1.67;;;9.20;97.30;;;;;;5011414;28;20416;-95
2024/02/03 05:11:46;;;;;;;1.67;1.57;;;9.10;97.30;;;;;;4998575;28;20437;-93
2024/02/03 05:14:19;;;;;;;1.67;1.47;;;9.20;97.30;;;;;;5001804;28;20413;-94
2024/02/03 05:16:47;;;;;;;1.23;1.20;;;9.20;97.30;;;;;;5007691;28;20461;-94
2024/02/03 05:19:15;;;;;;;3.50;2.20;;;9.10;97.30;;;;;;4997773;28;20445;-94
2024/02/03 05:21:46;;;;;;;2.10;1.67;;;9.10;97.30;;;;;;4997862;28;20445;-93
2024/02/03 05:24:16;;;;;;;1.07;0.97;;;9.10;97.30;;;;;;4990680;28;20434;-93
2024/02/03 05:26:44;;;;;;;1.20;1.10;;;9.10;97.30;;;;;;5008200;28;20437;-92
2024/02/03 05:29:17;;;;;;;1.50;1.40;;;9.10;97.30;;;;;;5013882;28;20424;-94
2024/02/03 05:31:45;;;;;;;1.60;1.50;;;9.10;97.30;;;;;;4997312;28;20484;-92
2024/02/03 05:34:27;;;;;;;1.93;1.33;;;9.10;97.30;;;;;;5005480;28;20437;-94
2024/02/03 05:36:56;;;;;;;1.93;1.83;;;9.10;97.30;;;;;;4993210;28;21045;-93
2024/02/03 05:39:26;;;;;;;2.73;1.20;;;9.20;97.30;;;;;;5003350;28;20489;-92
2024/02/03 05:41:54;;;;;;;1.20;1.10;;;9.20;97.30;;;;;;5008030;28;20518;-93
2024/02/03 05:44:25;;;;;;;1.50;1.40;;;9.20;97.30;;;;;;5006315;28;20476;-95
2024/02/03 05:47:05;;;;;;;1.43;1.33;;;9.20;97.30;;;;;;5014568;28;20461;-94
2024/02/03 05:49:39;;;;;;;1.60;1.50;;;9.20;97.30;;;;;;5004879;28;20631;-94
2024/02/03 05:52:07;;;;;;;4.20;1.57;;;9.20;97.30;;;;;;4998787;28;20453;-93
2024/02/03 05:54:35;;;;;;;3.67;1.60;;;9.20;97.30;;;;;;5007113;28;20445;-94
2024/02/03 05:57:18;;;;;;;1.23;1.13;;;9.20;97.30;;;;;;5004411;28;20472;-93
2024/02/03 05:59:46;;;;;;;1.10;1.00;;;9.20;97.30;;;;;;5008820;28;20417;-94
2024/02/03 06:02:14;;;;;;;3.33;1.50;;;9.20;97.30;;;;;;5008254;28;20501;-92
2024/02/03 06:04:49;;;;;;;1.60;1.57;;;9.30;97.30;;;;;;5009563;28;20462;-90
2024/02/03 06:07:17;;;;;;;1.50;1.40;;;9.20;97.30;;;;;;5003190;28;20456;-93
2024/02/03 06:09:45;;;;;;;1.53;1.43;;;9.20;97.30;;;;;;5005511;28;20504;-93
2024/02/03 06:12:15;;;;;;;1.37;1.27;;;9.30;97.30;;;;;;5006692;28;20458;-92
2024/02/03 06:14:48;;;;;;;2.33;2.13;;;9.30;97.30;;;;;;5007938;28;20446;-91
2024/02/03 06:17:16;;;;;;;2.40;2.20;;;9.30;97.30;;;;;;5011293;28;20460;-91
2024/02/03 06:19:44;;;;;;;2.50;1.37;;;9.30;97.30;;;;;;5006360;28;20480;-94
2024/02/03 06:22:17;;;;;;;3.70;1.57;;;9.30;97.30;;;;;;5008594;28;20432;-92
2024/02/03 06:24:45;;;;;;;1.60;1.30;;;9.20;97.30;;;;;;5008398;28;20412;-92
2024/02/03 06:27:15;;;;;;;2.80;1.47;;;9.30;97.30;;;;;;5008060;28;20424;-93
2024/02/03 06:29:46;;;;;;;2.10;1.23;;;9.30;97.30;;;;;;5004735;28;20473;-94
2024/02/03 06:32:14;;;;;;;2.40;2.20;;;9.30;97.30;;;;;;5007950;28;20444;-94
2024/02/03 06:34:47;;;;;;;1.07;1.00;;;9.20;97.30;;;;;;5005011;28;20412;-93
2024/02/03 06:37:16;;;;;;;1.37;1.10;;;9.30;97.30;;;;;;4991271;28;20464;-93
2024/02/03 06:40:01;;;;;;;1.33;1.00;;;9.30;97.30;;;;;;5006246;28;20437;-94
2024/02/03 06:42:27;;;;;;;0.93;0.87;;;9.30;97.30;;;;;;4996507;28;20476;-94
2024/02/03 06:44:55;;;;;;;3.60;2.50;;;9.30;97.30;;;;;;5009926;28;20429;-93
2024/02/03 06:47:28;;;;;;;1.83;1.73;;;9.30;97.30;;;;;;5005983;28;20186;-94
2024/02/03 06:49:56;;;;;;;3.07;1.93;;;9.30;97.30;;;;;;5015023;28;20772;-94
2024/02/03 06:52:29;;;;;;;1.10;1.00;;;9.30;97.30;;;;;;4988556;28;20444;-92
2024/02/03 06:54:57;;;;;;;2.50;2.17;;;9.30;97.30;;;;;;4990927;28;20420;-93
2024/02/03 06:57:26;;;;;;;1.90;1.33;;;9.30;97.30;;;;;;5005854;28;20487;-94
2024/02/03 06:59:56;;;;;;;1.07;0.97;;;9.30;97.30;;;;;;5014234;28;20412;-93
2024/02/03 07:02:24;;;;;;;2.23;2.03;;;9.30;97.30;;;;;;5004909;28;20573;-94
2024/02/03 07:04:55;;;;;;;2.60;1.20;;;9.30;97.30;;;;;;4993462;28;20437;-94
2024/02/03 07:07:26;;;;;;;3.53;2.27;;;9.30;97.30;;;;;;4994861;28;20452;-95
2024/02/03 07:10:08;;;;;;;1.93;1.80;;;9.30;97.30;;;;;;4996745;28;20438;-94
2024/02/03 07:12:37;;;;;;;1.00;0.90;;;9.30;97.30;;;;;;5002287;28;20508;-93
2024/02/03 07:15:25;;;;;;;1.13;1.10;;;9.30;97.30;;;;;;4993640;28;20421;-94
2024/02/03 07:17:57;;;;;;;1.10;1.00;;;9.30;97.30;;;;;;4998545;28;20470;-94
2024/02/03 07:20:29;;;;;;;0.90;0.80;;;9.40;97.30;;;;;;5008133;28;20439;-92
2024/02/03 07:22:57;;;;;;;1.27;1.17;;;9.40;97.30;;;;;;4993791;28;20441;-94
2024/02/03 07:25:26;;;;;;;1.33;1.27;;;9.40;97.30;;;;;;5012154;28;20470;-93
2024/02/03 07:27:58;;;;;;;0.90;0.80;;;9.40;97.30;;;;;;4996588;28;20440;-94
2024/02/03 07:30:48;;;;;;;1.83;1.73;;;9.40;97.30;;;;;;5001697;28;20444;-93
2024/02/03 07:33:16;;;;;;;1.37;1.20;;;9.40;97.30;;;;;;5002275;28;20431;-94
2024/02/03 07:35:45;;;;;;;1.20;1.10;;;9.40;97.30;;;;;;5001938;28;20533;-94
2024/02/03 07:38:16;;;;;;;1.17;1.10;;;9.40;97.30;;;;;;5000255;28;20472;-93
2024/02/03 07:40:45;;;;;;;1.63;1.47;;;9.40;97.30;;;;;;5005610;28;20428;-92
2024/02/03 07:43:15;;;;;;;2.20;1.57;;;9.40;97.30;;;;;;5003225;28;20408;-93
2024/02/03 07:45:48;;;;;;;2.07;1.93;;;9.40;97.30;;;;;;5007697;28;20528;-94
2024/02/03 07:48:17;;;;;;;1.87;1.20;;;9.40;97.30;;;;;;5006585;28;20476;-92
2024/02/03 07:50:45;;;;;;;2.87;2.67;;;9.50;97.30;;;;;;5003147;28;20532;-93
2024/02/03 07:53:15;;;;;;;0.90;0.80;;;9.40;97.30;;;;;;5009929;28;20408;-93
2024/02/03 07:56:07;;;;;;;1.13;1.03;;;9.50;97.30;;;;;;5002999;28;20443;-91
2024/02/03 07:58:35;;;;;;;3.23;1.33;;;9.50;97.30;;;;;;5008224;28;20432;-94
2024/02/03 08:01:08;;;;;;;1.00;0.90;;;9.50;97.30;;;;;;4999570;28;20466;-94
2024/02/03 08:03:36;;;;;;;0.70;0.70;;;9.50;97.30;;;;;;5001588;28;20471;-90
2024/02/03 08:06:09;;;;;;;1.17;1.07;;;9.50;97.30;;;;;;5009691;28;20502;-92
2024/02/03 08:08:38;;;;;;;2.43;1.87;;;9.60;97.30;;;;;;4996259;28;20412;-91
2024/02/03 08:11:06;;;;;;;1.40;1.40;;;9.60;97.30;;;;;;4999040;28;20417;-90
2024/02/03 08:13:34;;;;;;;1.50;1.43;;;9.60;97.30;;;;;;5003544;28;20439;-92
2024/02/03 08:16:17;;;;;;;3.80;2.27;;;9.60;97.30;;;;;;4999883;28;20460;-93
2024/02/03 08:18:45;;;;;;;1.47;1.33;;;9.70;97.30;;;;;;4996975;28;20467;-93
2024/02/03 08:21:16;;;;;;;1.60;1.53;;;9.70;97.30;;;;;;4999098;28;20453;-92
2024/02/03 08:23:47;;;;;;;2.23;1.40;;;9.70;97.30;;;;;;5001264;28;20447;-93
2024/02/03 08:26:15;;;;;;;1.00;0.90;;;9.70;97.30;;;;;;4989824;28;20463;-93
2024/02/03 08:28:47;;;;;;;2.47;1.53;;;9.70;97.30;;;;;;4996032;28;20428;-93
2024/02/03 08:34:28;;;;;;;1.20;1.10;;;9.70;97.30;;;;;;5007530;28;20429;-91
2024/02/03 08:36:59;;;;;;;1.20;1.13;;;9.70;97.30;;;;;;5001783;28;20455;-94
2024/02/03 08:39:25;;;;;;;1.20;1.10;;;9.70;97.30;;;;;;4996514;28;20420;-93
2024/02/03 08:41:57;;;;;;;1.00;0.90;;;9.80;97.30;;;;;;4993136;28;20432;-94
2024/02/03 08:44:28;;;;;;;5.13;1.50;;;9.80;97.30;;;;;;5001570;28;20200;-91
2024/02/03 08:46:56;;;;;;;7.23;2.87;;;9.80;97.30;;;;;;5021263;28;20416;-91
2024/02/03 08:49:37;;;;;;;1.10;1.00;;;9.80;97.30;;;;;;5009902;28;20428;-93
2024/02/03 08:52:06;;;;;;;1.43;1.00;;;9.90;97.30;;;;;;5009455;28;20440;-92
2024/02/03 08:54:37;;;;;;;0.90;0.80;;;9.90;97.30;;;;;;5012641;28;20872;-93
2024/02/03 08:57:05;;;;;;;1.00;0.90;;;9.90;97.30;;;;;;5008298;28;20479;-92
2024/02/03 08:59:50;;;;;;;1.20;1.17;;;9.90;97.30;;;;;;5006672;28;20439;-94
2024/02/03 09:02:16;;;;;;;1.00;0.90;;;9.90;97.30;;;;;;5008139;28;20471;-95
2024/02/03 09:04:44;;;;;;;1.07;0.97;;;9.90;97.30;;;;;;5007684;28;20456;-93
2024/02/03 09:07:15;;;;;;;1.00;0.90;;;9.90;97.30;;;;;;5007680;28;20435;-93
2024/02/03 09:09:48;;;;;;;1.00;0.90;;;10.00;97.30;;;;;;5010811;28;20421;-96
2024/02/03 09:12:16;;;;;;;0.90;0.80;;;10.00;97.30;;;;;;5007517;28;20691;-94
2024/02/03 09:14:45;;;;;;;3.70;1.10;;;10.00;97.30;;;;;;5001243;28;20483;-92
2024/02/03 09:17:18;;;;;;;0.90;0.80;;;10.00;97.30;;;;;;4995168;28;20457;-93
2024/02/03 09:19:58;;;;;;;1.23;1.13;;;10.00;97.30;;;;;;4999167;28;20615;-92
2024/02/03 09:22:26;;;;;;;2.93;1.80;;;10.00;97.30;;;;;;5005727;28;20475;-93
2024/02/03 09:24:55;;;;;;;0.90;0.80;;;10.00;97.30;;;;;;4991483;28;20428;-93
2024/02/03 09:27:26;;;;;;;1.83;1.77;;;10.00;97.30;;;;;;4999634;28;20457;-93
2024/02/03 09:29:55;;;;;;;1.80;1.43;;;10.00;97.30;;;;;;5004262;28;21196;-93
2024/02/03 09:33:31;;;;;;;;;;;;;;;;;;;;;
2024/02/03 09:35:47;;;;;;;0.90;0.80;;;10.10;97.30;;;;;;5018549;28;20408;-94
2024/02/03 09:38:15;;;;;;;0.90;0.80;;;10.10;97.30;;;;;;5009815;28;20436;-93
2024/02/03 09:40:48;;;;;;;1.00;0.90;;;10.10;97.30;;;;;;5011325;28;20205;-94
2024/02/03 09:43:17;;;;;;;0.80;0.70;;;10.10;97.30;;;;;;5005032;28;20424;-94
2024/02/03 09:45:45;;;;;;;1.00;0.90;;;10.00;97.30;;;;;;4998837;28;20437;-93
2024/02/03 09:48:18;;;;;;;1.23;1.13;;;10.00;97.30;;;;;;5007102;28;20409;-94
2024/02/03 09:50:46;;;;;;;0.90;0.80;;;10.10;97.30;;;;;;5004488;28;20448;-94
2024/02/03 09:53:19;;;;;;;0.97;0.87;;;10.10;97.30;;;;;;5007178;28;20484;-95
2024/02/03 09:55:45;;;;;;;0.90;0.80;;;10.10;97.30;;;;;;4998986;28;20438;-93
2024/02/03 09:58:29;;;;;;;1.20;1.10;;;10.10;97.30;;;;;;5007000;28;20539;-93
2024/02/03 10:01:00;;;;;;;0.90;0.80;;;10.10;97.30;;;;;;5006549;28;20200;-93
2024/02/03 10:03:28;;;;;;;1.53;0.90;;;10.10;97.30;;;;;;5006673;28;20479;-93
2024/02/03 10:06:29;;;;;;;1.00;0.90;;;10.10;97.30;;;;;;5001576;28;20437;-93
2024/02/03 10:09:27;;;;;;;1.47;1.37;;;10.20;97.30;;;;;;5001525;28;20435;-96
2024/02/03 10:12:19;;;;;;;1.00;0.90;;;10.10;97.30;;;;;;5000463;28;20456;-95
2024/02/03 10:14:44;;;;;;;1.03;0.93;;;10.20;97.30;;;;;;5023262;23;21015;-71
2024/02/03 10:17:10;;;;;;;1.47;1.37;;;10.20;97.30;;;;;;5049196;28;20469;-72
2024/02/03 10:19:35;;;;;;;1.20;1.10;;;10.30;97.30;;;;;;5039333;28;20700;-74
2024/02/03 10:22:01;;;;;;;0.90;0.80;;;10.30;97.30;;;;;;5022470;28;20215;-74
2024/02/03 10:24:28;;;;;;;1.57;1.47;;;10.30;97.30;;;;;;5021110;28;20382;-78
2024/02/03 10:27:04;;;;;;;1.10;1.10;;;10.30;97.30;;;;;;4996220;28;20428;-73
2024/02/03 10:29:30;;;;;;;1.00;0.90;;;10.30;97.30;;;;;;5015148;28;20451;-76
2024/02/03 10:31:55;;;;;;;1.10;1.00;;;10.30;97.30;;;;;;5012222;28;20513;-77
2024/02/03 10:34:22;;;;;;;1.00;0.90;;;10.30;97.30;;;;;;5011474;28;20175;-77
2024/02/03 10:36:47;;;;;;;0.90;0.80;;;10.20;97.30;;;;;;5012626;28;20532;-74
2024/02/03 10:39:14;;;;;;;1.20;1.10;;;10.20;97.30;;;;;;5011993;28;20435;-77
2024/02/03 10:41:41;;;;;;;1.00;0.97;;;10.30;97.30;;;;;;5011379;28;20299;-75
2024/02/03 10:44:10;;;;;;;0.90;0.80;;;10.30;97.30;;;;;;5021296;28;20423;-78
2024/02/03 10:46:39;;;;;;;0.90;0.80;;;10.40;97.30;;;;;;5007527;28;20891;-73
2024/02/03 10:49:12;;;;;;;1.00;0.90;;;10.40;97.30;;;;;;5010194;28;20436;-75
2024/02/03 10:51:39;;;;;;;0.90;0.80;;;10.40;97.30;;;;;;5018981;28;20455;-74
2024/02/03 10:54:11;;;;;;;0.83;0.80;;;10.40;97.30;;;;;;5003462;28;20966;-76
2024/02/03 10:56:38;;;;;;;1.23;1.10;;;10.40;97.30;;;;;;5009736;28;20536;-78
2024/02/03 10:59:05;;;;;;;0.80;0.70;;;10.40;97.30;;;;;;5033054;28;20455;-82
2024/02/03 11:01:36;;;;;;;1.03;0.93;;;10.40;97.30;;;;;;5018127;28;21016;-80
2024/02/03 11:04:04;;;;;;;0.80;0.70;;;10.40;97.30;;;;;;5018146;28;20420;-72
2024/02/03 11:06:31;;;;;;;0.90;0.80;;;10.40;97.30;;;;;;5025164;28;20434;-75
2024/02/03 11:09:20;;;;;;;1.00;0.90;;;10.50;97.30;;;;;;5028679;28;20418;-75
2024/02/03 11:11:52;;;;;;;3.90;2.07;;;10.60;97.30;;;;;;5000940;28;20959;-78
2024/02/03 11:14:21;;;;;;;0.90;0.80;;;10.60;97.30;;;;;;5028350;28;20562;-82
2024/02/03 11:16:57;;;;;;;1.60;1.50;;;10.60;97.30;;;;;;5008860;28;20552;-81
2024/02/03 11:19:28;;;;;;;1.47;1.37;;;10.50;97.30;;;;;;5029158;28;21042;-79
2024/02/03 11:21:58;;;;;;;0.80;0.70;;;10.50;97.30;;;;;;5029679;28;20971;-78
2024/02/03 11:24:24;;;;;;;1.33;1.33;;;10.50;97.30;;;;;;5029037;28;20411;-78
2024/02/03 11:26:57;;;;;;;1.00;0.90;;;10.50;97.30;;;;;;5011739;28;20514;-79
2024/02/03 11:29:24;;;;;;;0.90;0.80;;;10.50;97.30;;;;;;5012333;28;20431;-82
2024/02/03 11:32:00;;;;;;;0.80;0.80;;;10.50;97.30;;;;;;5028216;28;20558;-80
2024/02/03 11:34:30;;;;;;;2.20;1.83;;;10.50;97.30;;;;;;5011628;28;20430;-81
2024/02/03 11:36:56;;;;;;;0.90;0.80;;;10.50;97.30;;;;;;5012458;28;20566;-87
2024/02/03 11:39:36;;;;;;;0.90;0.80;;;10.50;97.30;;;;;;5015605;28;20525;-72
2024/02/03 11:42:07;;;;;;;0.90;0.80;;;10.50;97.30;;;;;;5009811;28;20516;-76
2024/02/03 11:44:37;;;;;;;2.60;1.60;;;10.50;97.30;;;;;;5032135;28;20412;-84
2024/02/03 11:47:05;;;;;;;1.10;1.03;;;10.50;97.30;;;;;;5018030;28;20423;-81
2024/02/03 11:49:32;;;;;;;1.10;1.00;;;10.50;97.30;;;;;;5031640;28;20518;-75
2024/02/03 11:52:01;;;;;;;1.20;1.10;;;10.50;97.30;;;;;;5032723;28;20457;-79
2024/02/03 11:54:27;;;;;;;0.80;0.80;;;10.40;97.30;;;;;;5031768;28;20517;-77
2024/02/03 11:56:54;;;;;;;1.03;0.93;;;10.40;97.30;;;;;;5023790;28;20477;-75
2024/02/03 11:59:30;;;;;;;0.90;0.80;;;10.30;97.30;;;;;;5014951;28;20973;-76
2024/02/03 12:01:57;;;;;;;0.93;0.90;;;10.20;97.30;;;;;;5032780;28;20443;-75
2024/02/03 12:04:24;;;;;;;1.17;1.07;;;10.20;97.30;;;;;;5031110;28;20486;-77
2024/02/03 12:06:50;;;;;;;1.30;1.20;;;10.30;97.30;;;;;;5031160;28;20477;-74
2024/02/03 12:09:18;;;;;;;2.10;1.43;;;10.40;97.30;;;;;;5031148;28;20464;-73
2024/02/03 12:11:47;;;;;;;1.10;1.00;;;10.40;97.30;;;;;;5031579;28;20494;-75
2024/02/03 12:14:13;;;;;;;0.90;0.80;;;10.50;97.30;;;;;;5031360;28;20485;-72
2024/02/03 12:16:42;;;;;;;0.90;0.80;;;10.50;97.30;;;;;;4989489;28;20537;-72
2024/02/03 12:19:09;;;;;;;0.97;0.93;;;10.40;97.30;;;;;;5029174;28;20427;-78
2024/02/03 12:21:34;;;;;;;1.27;1.20;;;10.40;97.30;;;;;;5012371;28;20520;-76
2024/02/03 12:24:00;;;;;;;0.97;0.87;;;10.50;97.30;;;;;;5013159;28;20495;-75
2024/02/03 12:26:25;;;;;;;0.90;0.80;;;10.50;97.30;;;;;;5031165;28;20177;-82
2024/02/03 12:28:52;;;;;;;0.90;0.80;;;10.60;97.30;;;;;;5012481;28;20188;-80
2024/02/03 12:31:18;;;;;;;0.60;0.60;;;10.60;97.30;;;;;;5013954;28;20216;-81
2024/02/03 12:33:43;;;;;;;0.90;0.80;;;10.60;97.30;;;;;;5013257;28;20513;-79
2024/02/03 12:36:10;;;;;;;0.93;0.87;;;10.50;97.30;;;;;;5070184;23;20231;-90
2024/02/03 12:38:37;;;;;;;0.97;0.87;;;10.60;97.30;;;;;;5061934;28;20172;-91
2024/02/03 12:41:02;;;;;;;0.90;0.80;;;10.60;97.30;;;;;;5060715;28;20560;-91
2024/02/03 12:43:28;;;;;;;0.90;0.80;;;10.60;97.30;;;;;;5058911;28;20532;-89
2024/02/03 12:45:53;;;;;;;1.43;1.37;;;10.60;97.30;;;;;;5053578;28;20196;-90
2024/02/03 12:48:19;;;;;;;0.90;0.80;;;10.60;97.30;;;;;;5034479;28;20176;-91
2024/02/03 12:50:44;;;;;;;0.90;0.80;;;10.60;97.30;;;;;;5049714;28;20382;-94
2024/02/03 12:53:11;;;;;;;1.00;0.90;;;10.60;97.30;;;;;;5056668;28;20176;-94
2024/02/03 12:55:38;;;;;;;1.03;0.80;;;10.60;97.30;;;;;;5048341;28;20252;-90
2024/02/03 12:58:03;;;;;;;0.80;0.70;;;10.70;97.30;;;;;;5020924;28;20571;-91
2024/02/03 13:00:29;;;;;;;0.90;0.80;;;10.80;97.30;;;;;;5021548;28;20931;-92
2024/02/03 13:02:54;;;;;;;0.90;0.80;;;10.80;97.30;;;;;;5028245;28;20274;-91
2024/02/03 13:05:21;;;;;;;0.90;0.80;;;10.80;97.30;;;;;;5036356;28;20581;-91
2024/02/03 13:07:47;;;;;;;0.90;0.80;;;10.80;97.30;;;;;;5028214;28;20187;-90
2024/02/03 13:10:12;;;;;;;1.00;0.93;;;10.80;97.30;;;;;;5031641;28;20844;-90
2024/02/03 13:12:40;;;;;;;0.90;0.80;;;10.80;97.30;;;;;;5033156;28;20183;-87
2024/02/03 13:15:06;;;;;;;0.80;0.70;;;10.80;97.30;;;;;;5021365;28;20186;-90
2024/02/03 13:17:31;;;;;;;0.93;0.83;;;10.80;97.30;;;;;;5036501;28;20450;-91
2024/02/03 13:19:57;;;;;;;1.57;1.10;;;10.80;97.30;;;;;;5054636;28;20176;-90
2024/02/03 13:22:23;;;;;;;0.80;0.70;;;10.70;97.30;;;;;;5052888;28;20172;-91
2024/02/03 13:24:49;;;;;;;1.00;0.90;;;10.80;97.30;;;;;;5018864;28;20203;-90
2024/02/03 13:27:17;;;;;;;1.00;1.00;;;10.80;97.30;;;;;;5030336;28;20461;-91
2024/02/03 13:29:43;;;;;;;0.80;0.70;;;10.80;97.30;;;;;;5028068;28;20187;-88
2024/02/03 13:32:15;;;;;;;0.90;0.80;;;10.70;97.30;;;;;;5035513;28;20426;-89
2024/02/03 13:34:41;;;;;;;0.80;0.70;;;10.70;97.30;;;;;;5021359;28;20261;-90
2024/02/03 13:37:07;;;;;;;0.90;0.80;;;10.70;97.30;;;;;;5049031;28;21000;-88
2024/02/03 13:39:32;;;;;;;0.90;0.80;;;10.70;97.30;;;;;;5022864;28;20204;-88
2024/02/03 13:41:58;;;;;;;0.83;0.73;;;10.70;97.30;;;;;;5045154;28;20183;-89
2024/02/03 13:44:23;;;;;;;1.40;1.30;;;10.60;97.30;;;;;;5021655;28;20191;-86
2024/02/03 13:46:49;;;;;;;0.90;0.80;;;10.60;97.30;;;;;;5032126;28;20204;-87
2024/02/03 13:49:14;;;;;;;1.07;0.97;;;10.60;97.30;;;;;;5029567;28;20302;-91
2024/02/03 13:51:40;;;;;;;0.90;0.80;;;10.60;97.30;;;;;;5038641;28;20187;-89
2024/02/03 13:54:06;;;;;;;0.90;0.90;;;10.60;97.30;;;;;;5028132;28;20379;-88
2024/02/03 13:56:31;;;;;;;0.90;0.80;;;10.60;97.30;;;;;;5045158;28;20204;-89
2024/02/03 13:58:57;;;;;;;0.90;0.80;;;10.60;97.30;;;;;;5035764;28;20517;-88
2024/02/03 14:01:24;;;;;;;0.80;0.70;;;10.60;97.30;;;;;;5027359;28;20174;-89
2024/02/03 14:03:53;;;;;;;0.80;0.70;;;10.60;97.30;;;;;;5034879;28;20172;-91
2024/02/03 14:06:18;;;;;;;1.00;0.90;;;10.60;97.30;;;;;;5030047;28;20530;-88
2024/02/03 14:08:44;;;;;;;0.90;0.80;;;10.60;97.30;;;;;;5030032;28;20511;-89
2024/02/03 14:11:11;;;;;;;0.90;0.80;;;10.60;97.30;;;;;;5020561;28;20191;-88
2024/02/03 14:13:36;;;;;;;1.20;1.13;;;10.50;97.30;;;;;;5027968;28;20521;-88
2024/02/03 14:16:02;;;;;;;1.23;1.20;;;10.40;97.30;;;;;;5031983;28;20447;-88
2024/02/03 14:18:28;;;;;;;0.90;0.80;;;10.40;97.30;;;;;;5023895;28;20223;-89
2024/02/03 14:20:53;;;;;;;0.90;0.80;;;10.30;97.30;;;;;;5026261;28;20180;-89
2024/02/03 14:23:19;;;;;;;1.07;0.97;;;10.30;97.30;;;;;;5022689;28;20219;-90
2024/02/03 14:25:45;;;;;;;0.90;0.80;;;10.20;97.30;;;;;;5050864;28;20196;-88
2024/02/03 14:28:10;;;;;;;1.00;0.90;;;10.20;97.30;;;;;;5032223;28;20249;-89
2024/02/03 14:30:35;;;;;;;1.10;1.00;;;10.20;97.30;;;;;;5021845;28;20184;-89
2024/02/03 14:33:03;;;;;;;0.90;0.80;;;10.10;97.30;;;;;;5053813;28;20180;-89
2024/02/03 14:35:28;;;;;;;1.80;1.27;;;10.10;97.30;;;;;;5035096;28;20284;-87
2024/02/03 14:37:54;;;;;;;1.20;1.10;;;10.10;97.30;;;;;;5033955;28;20489;-88
2024/02/03 14:40:20;;;;;;;0.90;0.80;;;10.10;97.30;;;;;;5034546;28;20195;-90
2024/02/03 14:42:46;;;;;;;1.00;0.90;;;10.10;97.30;;;;;;5026796;28;20198;-92
2024/02/03 14:45:11;;;;;;;1.00;0.90;;;10.10;97.30;;;;;;5048151;28;20167;-89
2024/02/03 14:47:37;;;;;;;0.87;0.77;;;10.10;97.30;;;;;;5031949;28;20179;-88
2024/02/03 14:50:02;;;;;;;0.87;0.77;;;10.10;97.30;;;;;;5033008;28;20179;-91
2024/02/03 14:52:28;;;;;;;0.90;0.80;;;10.10;97.30;;;;;;5050395;28;20226;-89
2024/02/03 14:54:54;;;;;;;0.80;0.70;;;10.10;97.30;;;;;;5032950;28;20180;-89
2024/02/03 14:57:22;;;;;;;0.80;0.70;;;10.10;97.30;;;;;;5033866;28;20553;-91
2024/02/03 14:59:48;;;;;;;1.07;0.97;;;10.10;97.30;;;;;;5051117;28;20712;-90
2024/02/03 15:02:16;;;;;;;1.13;0.90;;;10.10;97.30;;;;;;5030205;28;20498;-88
2024/02/03 15:04:44;;;;;;;0.80;0.70;;;10.10;97.30;;;;;;5017715;28;20451;-86
2024/02/03 15:07:10;;;;;;;0.80;0.70;;;10.00;97.30;;;;;;5026528;28;20477;-89
2024/02/03 15:09:35;;;;;;;0.90;0.80;;;10.00;97.30;;;;;;5026697;28;20430;-89
2024/02/03 15:12:01;;;;;;;1.10;1.00;;;10.00;97.30;;;;;;5029377;28;20191;-89
2024/02/03 15:14:26;;;;;;;1.00;0.90;;;10.00;97.30;;;;;;5038973;28;20183;-89
2024/02/03 15:16:52;;;;;;;2.07;1.93;;;10.00;97.30;;;;;;5025714;28;20347;-88
2024/02/03 15:19:17;;;;;;;1.37;1.00;;;10.00;97.30;;;;;;5041170;28;20184;-88
2024/02/03 15:21:43;;;;;;;1.13;1.03;;;10.00;97.30;;;;;;5047969;28;20294;-90
2024/02/03 15:24:09;;;;;;;3.57;1.10;;;9.90;97.30;;;;;;5035842;28;20463;-88
2024/02/03 15:26:35;;;;;;;1.17;1.10;;;9.90;97.30;;;;;;5026818;28;20583;-88
2024/02/03 15:29:01;;;;;;;1.30;1.27;;;9.90;97.30;;;;;;5025125;28;20187;-88
2024/02/03 15:31:26;;;;;;;1.00;0.90;;;9.90;97.30;;;;;;5027129;28;20180;-88
2024/02/03 15:33:52;;;;;;;2.40;1.33;;;9.90;97.30;;;;;;5032009;28;20428;-88
2024/02/03 15:36:20;;;;;;;1.00;1.00;;;9.90;97.30;;;;;;5044811;28;20231;-89
2024/02/03 15:38:45;;;;;;;1.33;1.23;;;9.90;97.30;;;;;;5025931;28;20437;-88
2024/02/03 15:41:11;;;;;;;1.27;1.17;;;9.90;97.30;;;;;;5051618;28;20486;-89
2024/02/03 15:43:38;;;;;;;1.20;1.10;;;9.90;97.30;;;;;;5032537;28;20238;-90
2024/02/03 15:46:05;;;;;;;1.10;1.00;;;9.90;97.30;;;;;;5046633;28;20265;-89
2024/02/03 15:48:30;;;;;;;2.00;1.30;;;9.80;97.30;;;;;;5041747;28;20978;-90
2024/02/03 15:50:56;;;;;;;1.20;0.97;;;9.80;97.30;;;;;;5026315;28;20426;-89
2024/02/03 15:53:22;;;;;;;0.80;0.70;;;9.80;97.30;;;;;;5032586;28;20176;-89
2024/02/03 15:55:48;;;;;;;1.13;1.03;;;9.80;97.30;;;;;;5020326;28;20212;-88
2024/02/03 15:58:13;;;;;;;1.10;1.00;;;9.80;97.30;;;;;;5030619;28;20689;-90
2024/02/03 16:00:39;;;;;;;1.57;1.03;;;9.80;97.30;;;;;;5025191;28;20180;-91
2024/02/03 16:03:07;;;;;;;0.90;0.80;;;9.70;97.30;;;;;;5032985;28;20180;-89
2024/02/03 16:05:32;;;;;;;0.80;0.70;;;9.70;97.30;;;;;;5031937;28;20439;-89
2024/02/03 16:07:58;;;;;;;0.80;0.70;;;9.70;97.30;;;;;;5031929;28;20533;-90
2024/02/03 16:10:24;;;;;;;1.00;0.90;;;9.60;97.30;;;;;;5027859;28;20597;-89
2024/02/03 16:12:50;;;;;;;1.67;1.23;;;9.60;97.30;;;;;;5026974;28;20276;-90
2024/02/03 16:15:15;;;;;;;2.00;1.93;;;9.60;97.30;;;;;;5045069;28;20830;-90
2024/02/03 16:17:41;;;;;;;4.30;1.23;;;9.60;97.30;;;;;;5029286;28;20206;-89
2024/02/03 16:20:08;;;;;;;1.00;0.90;;;9.60;97.30;;;;;;5026053;28;20629;-90
2024/02/03 16:22:34;;;;;;;3.03;1.43;;;9.60;97.30;;;;;;5047590;28;20172;-90
2024/02/03 16:25:00;;;;;;;0.90;0.80;;;9.60;97.30;;;;;;5034589;28;20450;-89
2024/02/03 16:27:26;;;;;;;2.10;0.90;;;9.60;97.30;;;;;;5030115;28;20447;-89
2024/02/03 16:29:51;;;;;;;0.80;0.80;;;9.50;97.30;;;;;;5027470;28;20798;-89
2024/02/03 16:32:17;;;;;;;1.53;1.47;;;9.60;97.30;;;;;;5027400;28;20460;-90
2024/02/03 16:34:42;;;;;;;0.80;0.70;;;9.60;97.30;;;;;;5031496;28;20176;-89
2024/02/03 16:37:08;;;;;;;1.07;0.90;;;9.60;97.30;;;;;;5036790;28;20277;-90
2024/02/03 16:39:33;;;;;;;1.00;0.90;;;9.60;97.30;;;;;;5030861;28;20180;-88
2024/02/03 16:41:59;;;;;;;1.83;1.20;;;9.70;97.30;;;;;;5029821;28;20187;-88
2024/02/03 16:44:24;;;;;;;1.23;1.20;;;9.70;97.30;;;;;;5031747;28;20176;-89
2024/02/03 16:46:50;;;;;;;1.13;0.97;;;9.70;97.30;;;;;;5053935;28;20219;-91
2024/02/03 16:49:15;;;;;;;1.00;0.90;;;9.70;97.30;;;;;;5035204;28;20576;-90
2024/02/03 16:51:41;;;;;;;0.90;0.80;;;9.70;97.30;;;;;;5025724;28;20191;-91
2024/02/03 16:54:06;;;;;;;0.80;0.70;;;9.80;97.30;;;;;;5030944;28;20183;-89
2024/02/03 16:56:32;;;;;;;0.97;0.90;;;9.80;97.30;;;;;;5050139;28;20204;-90
2024/02/03 16:58:57;;;;;;;0.90;0.80;;;9.80;97.30;;;;;;5029397;28;20251;-91
2024/02/03 17:01:23;;;;;;;1.03;0.93;;;9.70;97.30;;;;;;5028869;28;20175;-89
2024/02/03 17:03:48;;;;;;;0.80;0.70;;;9.70;97.30;;;;;;5046719;28;20175;-90
2024/02/03 17:06:14;;;;;;;1.20;1.10;;;9.70;97.30;;;;;;5029992;28;20230;-89
2024/02/03 17:08:39;;;;;;;0.90;0.80;;;9.70;97.30;;;;;;5030370;28;20650;-89
2024/02/03 17:11:05;;;;;;;1.00;0.90;;;9.70;97.30;;;;;;5024635;28;20179;-90
2024/02/03 17:13:30;;;;;;;1.57;1.47;;;9.70;97.30;;;;;;5030199;28;20186;-89
2024/02/03 17:15:56;;;;;;;0.90;0.90;;;9.70;97.30;;;;;;5028236;28;20676;-89
2024/02/03 17:18:24;;;;;;;1.10;1.00;;;9.70;97.30;;;;;;5054121;28;20180;-89
2024/02/03 17:20:50;;;;;;;1.00;0.90;;;9.70;97.30;;;;;;5034763;28;20487;-88
2024/02/03 17:23:15;;;;;;;0.90;0.80;;;9.70;97.30;;;;;;5023466;28;20954;-88
2024/02/03 17:25:41;;;;;;;1.33;1.23;;;9.70;97.30;;;;;;5024441;28;20196;-90
2024/02/03 17:28:09;;;;;;;1.10;1.00;;;9.60;97.30;;;;;;5034528;28;20179;-91
2024/02/03 17:30:36;;;;;;;1.07;0.97;;;9.60;97.30;;;;;;5026192;28;20181;-90
2024/02/03 17:33:01;;;;;;;1.53;1.07;;;9.60;97.30;;;;;;5033651;28;20461;-90
2024/02/03 17:35:27;;;;;;;0.93;0.90;;;9.60;97.30;;;;;;5022800;28;20523;-90
2024/02/03 17:37:52;;;;;;;2.67;1.13;;;9.60;97.30;;;;;;5033387;28;20306;-90
2024/02/03 17:40:19;;;;;;;0.80;0.70;;;9.60;97.30;;;;;;5030807;28;20168;-90
2024/02/03 17:42:47;;;;;;;1.03;0.93;;;9.50;97.30;;;;;;5030623;28;20176;-90
2024/02/03 17:45:12;;;;;;;5.57;2.10;;;9.50;97.30;;;;;;5033168;28;20845;-89
2024/02/03 17:47:38;;;;;;;1.70;1.60;;;9.50;97.30;;;;;;5038872;28;20430;-90
2024/02/03 17:50:04;;;;;;;1.00;0.90;;;9.50;97.30;;;;;;5031708;28;20202;-89
2024/02/03 17:52:29;;;;;;;1.90;1.27;;;9.50;97.30;;;;;;5037364;28;20183;-89
2024/02/03 17:54:55;;;;;;;0.90;0.87;;;9.50;97.30;;;;;;5033744;28;20418;-89
2024/02/03 17:57:26;;;;;;;1.70;1.60;;;9.50;97.30;;;;;;5049621;28;20218;-90
2024/02/03 17:59:51;;;;;;;1.00;0.90;;;9.50;97.30;;;;;;5023262;28;20187;-89
2024/02/03 18:02:18;;;;;;;1.53;1.43;;;9.50;97.30;;;;;;5026343;28;20794;-89
2024/02/03 18:04:44;;;;;;;0.80;0.70;;;9.50;97.30;;;;;;5028757;28;20181;-90